sensor_id;sensor_type;location;lat;lon;timestamp;P1;durP1;ratioP1;P2;durP2;ratioP2
21979;SDS011;11154;48.558;9.234;2022-12-07T00:01:18;7.60;;;4.30;;
21979;SDS011;11154;48.558;9.234;2022-12-07T00:03:22;6.10;;;4.40;;
21979;SDS011;11154;48.558;9.234;2022-12-07T00:05:23;6.38;;;4.53;;
21979;SDS011;11154;48.558;9.234;2022-12-07T00:07:25;7.32;;;4.82;;
21979;SDS011;11154;48.558;9.234;2022-12-07T00:09:27;6.38;;;4.32;;
21979;SDS011;11154;48.558;9.234;2022-12-07T00:11:30;5.35;;;4.25;;
21979;SDS011;11154;48.558;9.234;2022-12-07T00:13:33;5.00;;;4.20;;
21979;SDS011;11154;48.558;9.234;2022-12-07T00:15:36;5.95;;;4.03;;
21979;SDS011;11154;48.558;9.234;2022-12-07T00:17:38;5.38;;;4.07;;
21979;SDS011;11154;48.558;9.234;2022-12-07T00:19:41;4.85;;;3.85;;
21979;SDS011;11154;48.558;9.234;2022-12-07T00:21:46;5.85;;;4.13;;
21979;SDS011;11154;48.558;9.234;2022-12-07T00:23:48;5.32;;;3.90;;
21979;SDS011;11154;48.558;9.234;2022-12-07T00:25:50;6.30;;;4.15;;
21979;SDS011;11154;48.558;9.234;2022-12-07T00:27:53;6.47;;;4.35;;
21979;SDS011;11154;48.558;9.234;2022-12-07T00:29:56;5.60;;;4.10;;
21979;SDS011;11154;48.558;9.234;2022-12-07T00:31:58;5.05;;;3.72;;
21979;SDS011;11154;48.558;9.234;2022-12-07T00:33:59;6.25;;;3.50;;
21979;SDS011;11154;48.558;9.234;2022-12-07T00:36:02;7.20;;;3.85;;
21979;SDS011;11154;48.558;9.234;2022-12-07T00:38:06;5.18;;;3.50;;
21979;SDS011;11154;48.558;9.234;2022-12-07T00:40:08;6.25;;;4.45;;
21979;SDS011;11154;48.558;9.234;2022-12-07T00:42:10;5.13;;;3.92;;
21979;SDS011;11154;48.558;9.234;2022-12-07T00:44:13;4.10;;;3.35;;
21979;SDS011;11154;48.558;9.234;2022-12-07T00:46:15;3.47;;;3.15;;
21979;SDS011;11154;48.558;9.234;2022-12-07T00:48:17;5.90;;;3.90;;
21979;SDS011;11154;48.558;9.234;2022-12-07T00:50:19;6.90;;;4.00;;
21979;SDS011;11154;48.558;9.234;2022-12-07T00:52:20;5.22;;;3.70;;
21979;SDS011;11154;48.558;9.234;2022-12-07T00:54:22;4.95;;;3.65;;
21979;SDS011;11154;48.558;9.234;2022-12-07T00:56:24;3.95;;;3.55;;
21979;SDS011;11154;48.558;9.234;2022-12-07T00:58:28;5.03;;;3.50;;
21979;SDS011;11154;48.558;9.234;2022-12-07T01:00:31;6.07;;;3.47;;
21979;SDS011;11154;48.558;9.234;2022-12-07T01:02:34;3.78;;;3.30;;
21979;SDS011;11154;48.558;9.234;2022-12-07T01:04:36;4.35;;;3.50;;
21979;SDS011;11154;48.558;9.234;2022-12-07T01:06:38;3.65;;;3.17;;
21979;SDS011;11154;48.558;9.234;2022-12-07T01:08:39;5.03;;;3.35;;
21979;SDS011;11154;48.558;9.234;2022-12-07T01:10:41;4.20;;;3.33;;
21979;SDS011;11154;48.558;9.234;2022-12-07T01:12:43;4.75;;;3.05;;
21979;SDS011;11154;48.558;9.234;2022-12-07T01:14:45;3.92;;;3.10;;
21979;SDS011;11154;48.558;9.234;2022-12-07T01:16:48;5.65;;;3.50;;
21979;SDS011;11154;48.558;9.234;2022-12-07T01:18:51;3.88;;;2.85;;
21979;SDS011;11154;48.558;9.234;2022-12-07T01:20:57;5.40;;;3.30;;
21979;SDS011;11154;48.558;9.234;2022-12-07T01:23:00;4.93;;;3.00;;
21979;SDS011;11154;48.558;9.234;2022-12-07T01:25:01;4.70;;;3.28;;
21979;SDS011;11154;48.558;9.234;2022-12-07T01:27:03;3.58;;;2.90;;
21979;SDS011;11154;48.558;9.234;2022-12-07T01:29:05;4.57;;;2.80;;
21979;SDS011;11154;48.558;9.234;2022-12-07T01:31:07;4.65;;;3.10;;
21979;SDS011;11154;48.558;9.234;2022-12-07T01:33:12;4.90;;;3.20;;
21979;SDS011;11154;48.558;9.234;2022-12-07T01:35:14;3.42;;;2.97;;
21979;SDS011;11154;48.558;9.234;2022-12-07T01:37:16;4.00;;;3.20;;
21979;SDS011;11154;48.558;9.234;2022-12-07T01:39:18;3.28;;;2.47;;
21979;SDS011;11154;48.558;9.234;2022-12-07T01:41:20;3.47;;;2.78;;
21979;SDS011;11154;48.558;9.234;2022-12-07T01:43:22;4.88;;;2.80;;
21979;SDS011;11154;48.558;9.234;2022-12-07T01:47:48;3.67;;;2.78;;
21979;SDS011;11154;48.558;9.234;2022-12-07T01:49:55;3.72;;;2.47;;
21979;SDS011;11154;48.558;9.234;2022-12-07T01:51:58;4.00;;;2.85;;
21979;SDS011;11154;48.558;9.234;2022-12-07T01:54:10;3.28;;;2.92;;
21979;SDS011;11154;48.558;9.234;2022-12-07T01:56:16;4.50;;;2.85;;
21979;SDS011;11154;48.558;9.234;2022-12-07T01:58:22;3.53;;;2.90;;
21979;SDS011;11154;48.558;9.234;2022-12-07T02:00:25;4.10;;;3.35;;
21979;SDS011;11154;48.558;9.234;2022-12-07T02:02:27;3.92;;;3.53;;
21979;SDS011;11154;48.558;9.234;2022-12-07T02:04:32;4.43;;;3.47;;
21979;SDS011;11154;48.558;9.234;2022-12-07T02:06:36;3.92;;;3.53;;
21979;SDS011;11154;48.558;9.234;2022-12-07T02:08:38;4.22;;;3.83;;
21979;SDS011;11154;48.558;9.234;2022-12-07T02:10:40;4.53;;;3.80;;
21979;SDS011;11154;48.558;9.234;2022-12-07T02:12:42;5.70;;;4.05;;
21979;SDS011;11154;48.558;9.234;2022-12-07T02:14:47;4.40;;;3.92;;
21979;SDS011;11154;48.558;9.234;2022-12-07T02:16:53;4.32;;;3.75;;
21979;SDS011;11154;48.558;9.234;2022-12-07T02:19:13;4.10;;;3.70;;
21979;SDS011;11154;48.558;9.234;2022-12-07T02:21:40;4.43;;;3.85;;
21979;SDS011;11154;48.558;9.234;2022-12-07T02:23:56;4.87;;;3.80;;
21979;SDS011;11154;48.558;9.234;2022-12-07T02:26:19;5.05;;;4.20;;
21979;SDS011;11154;48.558;9.234;2022-12-07T02:28:46;4.88;;;4.38;;
21979;SDS011;11154;48.558;9.234;2022-12-07T02:30:58;5.57;;;4.97;;
21979;SDS011;11154;48.558;9.234;2022-12-07T02:33:07;5.30;;;4.35;;
21979;SDS011;11154;48.558;9.234;2022-12-07T02:35:16;5.07;;;4.22;;
21979;SDS011;11154;48.558;9.234;2022-12-07T02:37:27;4.82;;;4.30;;
21979;SDS011;11154;48.558;9.234;2022-12-07T02:39:37;5.72;;;4.70;;
21979;SDS011;11154;48.558;9.234;2022-12-07T02:41:46;6.90;;;4.75;;
21979;SDS011;11154;48.558;9.234;2022-12-07T02:43:52;5.93;;;5.28;;
21979;SDS011;11154;48.558;9.234;2022-12-07T02:45:57;6.20;;;5.45;;
21979;SDS011;11154;48.558;9.234;2022-12-07T02:48:04;6.13;;;5.10;;
21979;SDS011;11154;48.558;9.234;2022-12-07T02:50:08;5.50;;;5.00;;
21979;SDS011;11154;48.558;9.234;2022-12-07T02:52:10;5.07;;;4.53;;
21979;SDS011;11154;48.558;9.234;2022-12-07T02:54:12;6.15;;;4.47;;
21979;SDS011;11154;48.558;9.234;2022-12-07T02:56:16;6.78;;;5.90;;
21979;SDS011;11154;48.558;9.234;2022-12-07T02:58:30;6.50;;;5.90;;
21979;SDS011;11154;48.558;9.234;2022-12-07T03:00:42;7.10;;;6.40;;
21979;SDS011;11154;48.558;9.234;2022-12-07T03:02:53;7.07;;;6.38;;
21979;SDS011;11154;48.558;9.234;2022-12-07T03:05:02;7.70;;;6.90;;
21979;SDS011;11154;48.558;9.234;2022-12-07T03:07:16;8.18;;;7.20;;
21979;SDS011;11154;48.558;9.234;2022-12-07T03:09:27;8.43;;;7.57;;
21979;SDS011;11154;48.558;9.234;2022-12-07T03:11:36;8.52;;;7.65;;
21979;SDS011;11154;48.558;9.234;2022-12-07T03:13:47;8.43;;;7.60;;
21979;SDS011;11154;48.558;9.234;2022-12-07T03:15:55;8.35;;;7.47;;
21979;SDS011;11154;48.558;9.234;2022-12-07T03:18:03;8.00;;;7.20;;
21979;SDS011;11154;48.558;9.234;2022-12-07T03:20:09;8.20;;;7.40;;
21979;SDS011;11154;48.558;9.234;2022-12-07T03:22:13;8.30;;;7.38;;
21979;SDS011;11154;48.558;9.234;2022-12-07T03:24:16;8.00;;;7.20;;
21979;SDS011;11154;48.558;9.234;2022-12-07T03:26:22;8.40;;;7.50;;
21979;SDS011;11154;48.558;9.234;2022-12-07T03:28:31;9.07;;;7.90;;
21979;SDS011;11154;48.558;9.234;2022-12-07T03:30:37;9.05;;;7.55;;
21979;SDS011;11154;48.558;9.234;2022-12-07T03:32:45;7.75;;;7.05;;
21979;SDS011;11154;48.558;9.234;2022-12-07T03:34:53;7.32;;;6.63;;
21979;SDS011;11154;48.558;9.234;2022-12-07T03:37:01;6.85;;;6.15;;
21979;SDS011;11154;48.558;9.234;2022-12-07T03:39:09;7.53;;;6.72;;
21979;SDS011;11154;48.558;9.234;2022-12-07T03:41:19;7.80;;;7.00;;
21979;SDS011;11154;48.558;9.234;2022-12-07T03:43:24;7.32;;;6.63;;
21979;SDS011;11154;48.558;9.234;2022-12-07T03:45:28;8.45;;;7.45;;
21979;SDS011;11154;48.558;9.234;2022-12-07T03:47:36;8.80;;;7.63;;
21979;SDS011;11154;48.558;9.234;2022-12-07T03:49:48;8.82;;;7.50;;
21979;SDS011;11154;48.558;9.234;2022-12-07T03:51:54;8.00;;;7.20;;
21979;SDS011;11154;48.558;9.234;2022-12-07T03:54:02;8.13;;;7.32;;
21979;SDS011;11154;48.558;9.234;2022-12-07T03:56:11;8.38;;;7.57;;
21979;SDS011;11154;48.558;9.234;2022-12-07T03:58:15;7.38;;;6.57;;
21979;SDS011;11154;48.558;9.234;2022-12-07T04:00:19;8.07;;;6.80;;
21979;SDS011;11154;48.558;9.234;2022-12-07T04:02:21;8.55;;;5.88;;
21979;SDS011;11154;48.558;9.234;2022-12-07T04:04:23;8.82;;;6.63;;
21979;SDS011;11154;48.558;9.234;2022-12-07T04:06:27;7.38;;;5.95;;
21979;SDS011;11154;48.558;9.234;2022-12-07T04:08:29;7.38;;;6.03;;
21979;SDS011;11154;48.558;9.234;2022-12-07T04:10:31;6.68;;;4.65;;
21979;SDS011;11154;48.558;9.234;2022-12-07T04:12:32;6.10;;;4.70;;
21979;SDS011;11154;48.558;9.234;2022-12-07T04:14:34;7.80;;;5.90;;
21979;SDS011;11154;48.558;9.234;2022-12-07T04:16:36;7.28;;;5.30;;
21979;SDS011;11154;48.558;9.234;2022-12-07T04:18:37;7.78;;;6.03;;
21979;SDS011;11154;48.558;9.234;2022-12-07T04:20:39;10.82;;;6.00;;
21979;SDS011;11154;48.558;9.234;2022-12-07T04:22:42;7.80;;;5.97;;
21979;SDS011;11154;48.558;9.234;2022-12-07T04:24:44;9.38;;;5.78;;
21979;SDS011;11154;48.558;9.234;2022-12-07T04:26:45;7.13;;;5.55;;
21979;SDS011;11154;48.558;9.234;2022-12-07T04:28:47;7.53;;;5.95;;
21979;SDS011;11154;48.558;9.234;2022-12-07T04:30:49;6.55;;;5.25;;
21979;SDS011;11154;48.558;9.234;2022-12-07T04:32:51;6.45;;;5.32;;
21979;SDS011;11154;48.558;9.234;2022-12-07T04:34:53;6.55;;;5.20;;
21979;SDS011;11154;48.558;9.234;2022-12-07T04:36:54;6.30;;;5.22;;
21979;SDS011;11154;48.558;9.234;2022-12-07T04:38:57;6.28;;;5.47;;
21979;SDS011;11154;48.558;9.234;2022-12-07T04:41:03;8.45;;;5.93;;
21979;SDS011;11154;48.558;9.234;2022-12-07T04:43:06;7.75;;;5.55;;
21979;SDS011;11154;48.558;9.234;2022-12-07T04:45:08;5.85;;;5.00;;
21979;SDS011;11154;48.558;9.234;2022-12-07T04:47:10;6.20;;;5.30;;
21979;SDS011;11154;48.558;9.234;2022-12-07T04:49:13;6.60;;;5.43;;
21979;SDS011;11154;48.558;9.234;2022-12-07T04:51:15;7.00;;;5.30;;
21979;SDS011;11154;48.558;9.234;2022-12-07T04:53:20;6.43;;;5.28;;
21979;SDS011;11154;48.558;9.234;2022-12-07T04:55:25;6.57;;;4.97;;
21979;SDS011;11154;48.558;9.234;2022-12-07T04:57:26;6.85;;;5.10;;
21979;SDS011;11154;48.558;9.234;2022-12-07T04:59:28;6.00;;;5.20;;
21979;SDS011;11154;48.558;9.234;2022-12-07T05:01:29;6.03;;;4.97;;
21979;SDS011;11154;48.558;9.234;2022-12-07T05:03:31;7.35;;;5.32;;
21979;SDS011;11154;48.558;9.234;2022-12-07T05:05:33;7.15;;;5.22;;
21979;SDS011;11154;48.558;9.234;2022-12-07T05:07:35;6.00;;;5.30;;
21979;SDS011;11154;48.558;9.234;2022-12-07T05:09:36;6.38;;;5.30;;
21979;SDS011;11154;48.558;9.234;2022-12-07T05:11:39;5.72;;;4.97;;
21979;SDS011;11154;48.558;9.234;2022-12-07T05:13:41;7.70;;;6.32;;
21979;SDS011;11154;48.558;9.234;2022-12-07T05:15:42;18.75;;;12.70;;
21979;SDS011;11154;48.558;9.234;2022-12-07T05:17:44;15.20;;;10.25;;
21979;SDS011;11154;48.558;9.234;2022-12-07T05:19:46;8.50;;;6.35;;
21979;SDS011;11154;48.558;9.234;2022-12-07T05:21:48;8.38;;;6.35;;
21979;SDS011;11154;48.558;9.234;2022-12-07T05:23:50;8.15;;;5.60;;
21979;SDS011;11154;48.558;9.234;2022-12-07T05:25:51;6.05;;;5.00;;
21979;SDS011;11154;48.558;9.234;2022-12-07T05:27:56;9.88;;;5.85;;
21979;SDS011;11154;48.558;9.234;2022-12-07T05:29:57;6.88;;;5.55;;
21979;SDS011;11154;48.558;9.234;2022-12-07T05:31:59;7.63;;;5.97;;
21979;SDS011;11154;48.558;9.234;2022-12-07T05:34:00;7.75;;;5.45;;
21979;SDS011;11154;48.558;9.234;2022-12-07T05:36:03;7.50;;;6.03;;
21979;SDS011;11154;48.558;9.234;2022-12-07T05:38:07;7.75;;;5.63;;
21979;SDS011;11154;48.558;9.234;2022-12-07T05:40:09;7.15;;;5.25;;
21979;SDS011;11154;48.558;9.234;2022-12-07T05:42:11;7.65;;;5.85;;
21979;SDS011;11154;48.558;9.234;2022-12-07T05:44:13;8.68;;;5.97;;
21979;SDS011;11154;48.558;9.234;2022-12-07T05:46:15;6.90;;;5.13;;
21979;SDS011;11154;48.558;9.234;2022-12-07T05:48:17;7.82;;;5.68;;
21979;SDS011;11154;48.558;9.234;2022-12-07T05:50:18;8.50;;;5.15;;
21979;SDS011;11154;48.558;9.234;2022-12-07T05:52:20;7.97;;;5.85;;
21979;SDS011;11154;48.558;9.234;2022-12-07T05:54:22;14.35;;;8.93;;
21979;SDS011;11154;48.558;9.234;2022-12-07T05:56:24;13.82;;;8.43;;
21979;SDS011;11154;48.558;9.234;2022-12-07T05:58:26;9.75;;;6.78;;
21979;SDS011;11154;48.558;9.234;2022-12-07T06:00:46;6.68;;;5.60;;
21979;SDS011;11154;48.558;9.234;2022-12-07T06:02:48;7.35;;;5.30;;
21979;SDS011;11154;48.558;9.234;2022-12-07T06:04:50;7.50;;;5.47;;
21979;SDS011;11154;48.558;9.234;2022-12-07T06:06:51;7.93;;;6.20;;
21979;SDS011;11154;48.558;9.234;2022-12-07T06:08:53;8.02;;;6.68;;
21979;SDS011;11154;48.558;9.234;2022-12-07T06:10:55;9.23;;;5.82;;
21979;SDS011;11154;48.558;9.234;2022-12-07T06:13:10;7.82;;;5.57;;
21979;SDS011;11154;48.558;9.234;2022-12-07T06:15:12;7.55;;;5.93;;
21979;SDS011;11154;48.558;9.234;2022-12-07T06:17:15;7.45;;;5.18;;
21979;SDS011;11154;48.558;9.234;2022-12-07T06:19:17;6.63;;;5.18;;
21979;SDS011;11154;48.558;9.234;2022-12-07T06:21:19;5.60;;;4.63;;
21979;SDS011;11154;48.558;9.234;2022-12-07T06:23:20;5.93;;;4.25;;
21979;SDS011;11154;48.558;9.234;2022-12-07T06:25:22;5.85;;;4.88;;
21979;SDS011;11154;48.558;9.234;2022-12-07T06:27:23;6.53;;;5.25;;
21979;SDS011;11154;48.558;9.234;2022-12-07T06:29:25;6.80;;;5.07;;
21979;SDS011;11154;48.558;9.234;2022-12-07T06:31:27;8.15;;;5.53;;
21979;SDS011;11154;48.558;9.234;2022-12-07T06:33:30;5.65;;;5.00;;
21979;SDS011;11154;48.558;9.234;2022-12-07T06:35:32;6.25;;;4.85;;
21979;SDS011;11154;48.558;9.234;2022-12-07T06:37:34;7.97;;;5.75;;
21979;SDS011;11154;48.558;9.234;2022-12-07T06:39:35;7.03;;;5.45;;
21979;SDS011;11154;48.558;9.234;2022-12-07T06:41:37;8.48;;;5.57;;
21979;SDS011;11154;48.558;9.234;2022-12-07T06:43:39;6.47;;;5.22;;
21979;SDS011;11154;48.558;9.234;2022-12-07T06:45:42;7.65;;;5.43;;
21979;SDS011;11154;48.558;9.234;2022-12-07T06:47:44;7.22;;;5.20;;
21979;SDS011;11154;48.558;9.234;2022-12-07T06:49:47;8.38;;;6.10;;
21979;SDS011;11154;48.558;9.234;2022-12-07T06:51:48;8.23;;;5.47;;
21979;SDS011;11154;48.558;9.234;2022-12-07T06:53:50;9.10;;;5.57;;
21979;SDS011;11154;48.558;9.234;2022-12-07T06:55:51;6.72;;;5.07;;
21979;SDS011;11154;48.558;9.234;2022-12-07T06:57:53;6.40;;;5.47;;
21979;SDS011;11154;48.558;9.234;2022-12-07T06:59:55;6.75;;;5.45;;
21979;SDS011;11154;48.558;9.234;2022-12-07T07:01:56;8.60;;;5.45;;
21979;SDS011;11154;48.558;9.234;2022-12-07T07:03:58;6.53;;;5.25;;
21979;SDS011;11154;48.558;9.234;2022-12-07T07:06:01;6.45;;;5.03;;
21979;SDS011;11154;48.558;9.234;2022-12-07T07:08:03;6.85;;;5.15;;
21979;SDS011;11154;48.558;9.234;2022-12-07T07:10:05;8.02;;;5.78;;
21979;SDS011;11154;48.558;9.234;2022-12-07T07:12:07;8.05;;;5.80;;
21979;SDS011;11154;48.558;9.234;2022-12-07T07:14:09;7.68;;;5.65;;
21979;SDS011;11154;48.558;9.234;2022-12-07T07:16:12;7.60;;;5.68;;
21979;SDS011;11154;48.558;9.234;2022-12-07T07:18:14;8.00;;;5.88;;
21979;SDS011;11154;48.558;9.234;2022-12-07T07:20:15;9.75;;;5.70;;
21979;SDS011;11154;48.558;9.234;2022-12-07T07:22:19;7.00;;;5.63;;
21979;SDS011;11154;48.558;9.234;2022-12-07T07:24:20;9.27;;;6.05;;
21979;SDS011;11154;48.558;9.234;2022-12-07T07:26:22;7.43;;;5.43;;
21979;SDS011;11154;48.558;9.234;2022-12-07T07:28:24;6.80;;;5.03;;
21979;SDS011;11154;48.558;9.234;2022-12-07T07:30:25;7.70;;;4.82;;
21979;SDS011;11154;48.558;9.234;2022-12-07T07:32:27;7.65;;;5.90;;
21979;SDS011;11154;48.558;9.234;2022-12-07T07:34:29;7.88;;;6.00;;
21979;SDS011;11154;48.558;9.234;2022-12-07T07:36:31;7.55;;;5.75;;
21979;SDS011;11154;48.558;9.234;2022-12-07T07:38:34;7.95;;;6.30;;
21979;SDS011;11154;48.558;9.234;2022-12-07T07:40:36;9.25;;;5.97;;
21979;SDS011;11154;48.558;9.234;2022-12-07T07:42:38;7.45;;;5.03;;
21979;SDS011;11154;48.558;9.234;2022-12-07T07:44:39;8.32;;;6.15;;
21979;SDS011;11154;48.558;9.234;2022-12-07T07:46:41;13.32;;;7.88;;
21979;SDS011;11154;48.558;9.234;2022-12-07T07:48:42;8.10;;;6.70;;
21979;SDS011;11154;48.558;9.234;2022-12-07T07:50:44;10.07;;;7.00;;
21979;SDS011;11154;48.558;9.234;2022-12-07T07:52:46;9.40;;;6.57;;
21979;SDS011;11154;48.558;9.234;2022-12-07T07:54:49;8.57;;;6.30;;
21979;SDS011;11154;48.558;9.234;2022-12-07T07:56:51;7.35;;;5.88;;
21979;SDS011;11154;48.558;9.234;2022-12-07T07:58:53;7.63;;;5.95;;
21979;SDS011;11154;48.558;9.234;2022-12-07T08:00:55;8.27;;;6.35;;
21979;SDS011;11154;48.558;9.234;2022-12-07T08:02:56;7.20;;;5.20;;
21979;SDS011;11154;48.558;9.234;2022-12-07T08:04:59;8.43;;;6.40;;
21979;SDS011;11154;48.558;9.234;2022-12-07T08:07:00;8.18;;;6.28;;
21979;SDS011;11154;48.558;9.234;2022-12-07T08:09:02;15.02;;;9.70;;
21979;SDS011;11154;48.558;9.234;2022-12-07T08:11:07;9.10;;;6.72;;
21979;SDS011;11154;48.558;9.234;2022-12-07T08:13:10;9.02;;;7.15;;
21979;SDS011;11154;48.558;9.234;2022-12-07T08:15:12;16.92;;;11.43;;
21979;SDS011;11154;48.558;9.234;2022-12-07T08:17:13;17.02;;;10.82;;
21979;SDS011;11154;48.558;9.234;2022-12-07T08:19:15;15.13;;;10.15;;
21979;SDS011;11154;48.558;9.234;2022-12-07T08:21:17;15.25;;;10.30;;
21979;SDS011;11154;48.558;9.234;2022-12-07T08:23:18;10.55;;;7.38;;
21979;SDS011;11154;48.558;9.234;2022-12-07T08:25:20;7.97;;;6.20;;
21979;SDS011;11154;48.558;9.234;2022-12-07T08:27:23;8.70;;;6.43;;
21979;SDS011;11154;48.558;9.234;2022-12-07T08:29:27;16.23;;;10.63;;
21979;SDS011;11154;48.558;9.234;2022-12-07T08:31:28;20.70;;;13.52;;
21979;SDS011;11154;48.558;9.234;2022-12-07T08:33:30;18.90;;;12.90;;
21979;SDS011;11154;48.558;9.234;2022-12-07T08:35:32;17.20;;;11.63;;
21979;SDS011;11154;48.558;9.234;2022-12-07T08:37:34;15.45;;;10.02;;
21979;SDS011;11154;48.558;9.234;2022-12-07T08:39:36;9.65;;;7.28;;
21979;SDS011;11154;48.558;9.234;2022-12-07T08:41:37;9.95;;;6.68;;
21979;SDS011;11154;48.558;9.234;2022-12-07T08:43:40;8.38;;;6.05;;
21979;SDS011;11154;48.558;9.234;2022-12-07T08:45:42;7.47;;;5.72;;
21979;SDS011;11154;48.558;9.234;2022-12-07T08:47:44;7.75;;;5.63;;
21979;SDS011;11154;48.558;9.234;2022-12-07T08:49:50;7.05;;;5.50;;
21979;SDS011;11154;48.558;9.234;2022-12-07T08:51:53;8.02;;;6.13;;
21979;SDS011;11154;48.558;9.234;2022-12-07T08:53:56;8.13;;;5.38;;
21979;SDS011;11154;48.558;9.234;2022-12-07T08:56:02;7.78;;;5.60;;
21979;SDS011;11154;48.558;9.234;2022-12-07T08:58:04;7.70;;;6.20;;
21979;SDS011;11154;48.558;9.234;2022-12-07T09:00:08;7.60;;;6.03;;
21979;SDS011;11154;48.558;9.234;2022-12-07T09:02:11;7.68;;;6.00;;
21979;SDS011;11154;48.558;9.234;2022-12-07T09:04:12;12.10;;;7.78;;
21979;SDS011;11154;48.558;9.234;2022-12-07T09:06:15;10.80;;;7.88;;
21979;SDS011;11154;48.558;9.234;2022-12-07T09:08:17;9.32;;;6.78;;
21979;SDS011;11154;48.558;9.234;2022-12-07T09:10:19;7.30;;;5.82;;
21979;SDS011;11154;48.558;9.234;2022-12-07T09:12:21;9.05;;;6.80;;
21979;SDS011;11154;48.558;9.234;2022-12-07T09:14:23;8.55;;;5.85;;
21979;SDS011;11154;48.558;9.234;2022-12-07T09:16:26;9.07;;;6.50;;
21979;SDS011;11154;48.558;9.234;2022-12-07T09:18:28;7.68;;;6.18;;
21979;SDS011;11154;48.558;9.234;2022-12-07T09:20:30;8.13;;;6.05;;
21979;SDS011;11154;48.558;9.234;2022-12-07T09:22:31;7.50;;;6.00;;
21979;SDS011;11154;48.558;9.234;2022-12-07T09:24:34;7.18;;;5.60;;
21979;SDS011;11154;48.558;9.234;2022-12-07T09:26:35;6.68;;;5.45;;
21979;SDS011;11154;48.558;9.234;2022-12-07T09:28:39;8.52;;;6.07;;
21979;SDS011;11154;48.558;9.234;2022-12-07T09:30:45;7.82;;;5.53;;
21979;SDS011;11154;48.558;9.234;2022-12-07T09:32:48;7.30;;;5.90;;
21979;SDS011;11154;48.558;9.234;2022-12-07T09:34:49;9.13;;;6.05;;
21979;SDS011;11154;48.558;9.234;2022-12-07T09:36:51;6.75;;;5.15;;
21979;SDS011;11154;48.558;9.234;2022-12-07T09:38:53;6.95;;;5.18;;
21979;SDS011;11154;48.558;9.234;2022-12-07T09:40:55;6.53;;;5.22;;
21979;SDS011;11154;48.558;9.234;2022-12-07T09:42:57;6.90;;;5.35;;
21979;SDS011;11154;48.558;9.234;2022-12-07T09:44:58;5.95;;;5.20;;
21979;SDS011;11154;48.558;9.234;2022-12-07T09:47:01;5.97;;;5.20;;
21979;SDS011;11154;48.558;9.234;2022-12-07T09:49:05;8.20;;;5.03;;
21979;SDS011;11154;48.558;9.234;2022-12-07T09:51:13;9.02;;;5.68;;
21979;SDS011;11154;48.558;9.234;2022-12-07T09:53:18;8.05;;;5.22;;
21979;SDS011;11154;48.558;9.234;2022-12-07T09:55:27;7.47;;;5.53;;
21979;SDS011;11154;48.558;9.234;2022-12-07T09:57:31;5.72;;;4.72;;
21979;SDS011;11154;48.558;9.234;2022-12-07T09:59:34;6.45;;;5.28;;
21979;SDS011;11154;48.558;9.234;2022-12-07T10:01:37;9.85;;;5.60;;
21979;SDS011;11154;48.558;9.234;2022-12-07T10:03:40;9.55;;;5.03;;
21979;SDS011;11154;48.558;9.234;2022-12-07T10:05:48;5.50;;;4.57;;
21979;SDS011;11154;48.558;9.234;2022-12-07T10:07:51;6.47;;;4.57;;
21979;SDS011;11154;48.558;9.234;2022-12-07T10:09:56;8.10;;;5.63;;
21979;SDS011;11154;48.558;9.234;2022-12-07T10:12:02;6.65;;;4.75;;
21979;SDS011;11154;48.558;9.234;2022-12-07T10:14:10;6.05;;;4.85;;
21979;SDS011;11154;48.558;9.234;2022-12-07T10:16:27;8.95;;;4.70;;
21979;SDS011;11154;48.558;9.234;2022-12-07T10:18:43;5.60;;;4.47;;
21979;SDS011;11154;48.558;9.234;2022-12-07T10:20:45;6.78;;;5.20;;
21979;SDS011;11154;48.558;9.234;2022-12-07T10:25:17;5.72;;;4.45;;
21979;SDS011;11154;48.558;9.234;2022-12-07T10:27:21;6.97;;;4.78;;
21979;SDS011;11154;48.558;9.234;2022-12-07T10:29:28;7.25;;;5.03;;
21979;SDS011;11154;48.558;9.234;2022-12-07T10:31:31;6.07;;;4.40;;
21979;SDS011;11154;48.558;9.234;2022-12-07T10:33:34;7.43;;;5.47;;
21979;SDS011;11154;48.558;9.234;2022-12-07T10:35:38;5.63;;;4.65;;
21979;SDS011;11154;48.558;9.234;2022-12-07T10:37:44;5.88;;;4.70;;
21979;SDS011;11154;48.558;9.234;2022-12-07T10:39:48;5.38;;;4.82;;
21979;SDS011;11154;48.558;9.234;2022-12-07T10:41:54;7.32;;;5.07;;
21979;SDS011;11154;48.558;9.234;2022-12-07T10:43:57;6.60;;;4.20;;
21979;SDS011;11154;48.558;9.234;2022-12-07T10:46:05;5.13;;;4.00;;
21979;SDS011;11154;48.558;9.234;2022-12-07T10:48:30;5.25;;;3.92;;
21979;SDS011;11154;48.558;9.234;2022-12-07T10:50:46;6.57;;;4.18;;
21979;SDS011;11154;48.558;9.234;2022-12-07T10:53:09;5.28;;;3.83;;
21979;SDS011;11154;48.558;9.234;2022-12-07T10:55:21;5.15;;;4.30;;
21979;SDS011;11154;48.558;9.234;2022-12-07T10:57:33;6.55;;;3.40;;
21979;SDS011;11154;48.558;9.234;2022-12-07T10:59:53;7.18;;;3.53;;
21979;SDS011;11154;48.558;9.234;2022-12-07T11:02:02;5.45;;;4.38;;
21979;SDS011;11154;48.558;9.234;2022-12-07T11:04:22;5.70;;;3.97;;
21979;SDS011;11154;48.558;9.234;2022-12-07T11:06:30;5.72;;;4.20;;
21979;SDS011;11154;48.558;9.234;2022-12-07T11:08:39;5.53;;;4.07;;
21979;SDS011;11154;48.558;9.234;2022-12-07T11:10:52;6.70;;;4.38;;
21979;SDS011;11154;48.558;9.234;2022-12-07T11:13:04;5.45;;;3.80;;
21979;SDS011;11154;48.558;9.234;2022-12-07T11:15:18;4.93;;;3.90;;
21979;SDS011;11154;48.558;9.234;2022-12-07T11:17:26;4.82;;;3.80;;
21979;SDS011;11154;48.558;9.234;2022-12-07T11:22:03;5.22;;;3.70;;
21979;SDS011;11154;48.558;9.234;2022-12-07T11:24:10;6.03;;;3.75;;
21979;SDS011;11154;48.558;9.234;2022-12-07T11:26:22;6.20;;;4.28;;
21979;SDS011;11154;48.558;9.234;2022-12-07T11:28:36;4.82;;;3.83;;
21979;SDS011;11154;48.558;9.234;2022-12-07T11:31:00;5.97;;;4.38;;
21979;SDS011;11154;48.558;9.234;2022-12-07T11:33:14;6.13;;;4.07;;
21979;SDS011;11154;48.558;9.234;2022-12-07T11:35:22;4.97;;;4.28;;
21979;SDS011;11154;48.558;9.234;2022-12-07T11:37:31;5.45;;;4.20;;
21979;SDS011;11154;48.558;9.234;2022-12-07T11:39:35;7.38;;;4.22;;
21979;SDS011;11154;48.558;9.234;2022-12-07T11:41:42;4.95;;;3.90;;
21979;SDS011;11154;48.558;9.234;2022-12-07T11:43:50;5.13;;;3.95;;
21979;SDS011;11154;48.558;9.234;2022-12-07T11:45:57;6.15;;;4.50;;
21979;SDS011;11154;48.558;9.234;2022-12-07T11:48:04;6.68;;;4.20;;
21979;SDS011;11154;48.558;9.234;2022-12-07T11:50:22;5.50;;;4.40;;
21979;SDS011;11154;48.558;9.234;2022-12-07T11:52:30;5.90;;;4.30;;
21979;SDS011;11154;48.558;9.234;2022-12-07T11:54:40;5.43;;;3.92;;
21979;SDS011;11154;48.558;9.234;2022-12-07T11:56:46;6.38;;;3.95;;
21979;SDS011;11154;48.558;9.234;2022-12-07T11:58:53;5.28;;;3.88;;
21979;SDS011;11154;48.558;9.234;2022-12-07T12:01:01;5.45;;;4.05;;
21979;SDS011;11154;48.558;9.234;2022-12-07T12:03:12;5.65;;;4.22;;
21979;SDS011;11154;48.558;9.234;2022-12-07T12:05:23;5.18;;;3.95;;
21979;SDS011;11154;48.558;9.234;2022-12-07T12:07:26;6.22;;;3.50;;
21979;SDS011;11154;48.558;9.234;2022-12-07T12:09:29;4.72;;;3.60;;
21979;SDS011;11154;48.558;9.234;2022-12-07T12:11:38;5.95;;;3.95;;
21979;SDS011;11154;48.558;9.234;2022-12-07T12:14:00;7.00;;;4.10;;
21979;SDS011;11154;48.558;9.234;2022-12-07T12:16:18;4.85;;;3.80;;
21979;SDS011;11154;48.558;9.234;2022-12-07T12:18:45;5.72;;;3.50;;
21979;SDS011;11154;48.558;9.234;2022-12-07T12:21:00;5.72;;;3.88;;
21979;SDS011;11154;48.558;9.234;2022-12-07T12:23:05;5.30;;;3.67;;
21979;SDS011;11154;48.558;9.234;2022-12-07T12:25:15;5.13;;;3.90;;
21979;SDS011;11154;48.558;9.234;2022-12-07T12:27:24;6.75;;;3.85;;
21979;SDS011;11154;48.558;9.234;2022-12-07T12:29:31;5.18;;;3.58;;
21979;SDS011;11154;48.558;9.234;2022-12-07T12:31:37;4.65;;;3.53;;
21979;SDS011;11154;48.558;9.234;2022-12-07T12:33:44;5.30;;;4.13;;
21979;SDS011;11154;48.558;9.234;2022-12-07T12:38:28;5.55;;;3.92;;
21979;SDS011;11154;48.558;9.234;2022-12-07T12:40:40;5.20;;;3.72;;